Time;durP1;ratioP1;P1;durP2;ratioP2;P2;SDS_P1;SDS_P2;PMS_P1;PMS_P2;Temp;Humidity;BMP_temperature;BMP_pressure;BME280_temperature;BME280_humidity;BME280_pressure;Samples;Min_cycle;Max_cycle;Signal;HPM_P1;HPM_P2
2022/12/05 00:02:01;;;;;;;63.92;43.63;;;;;;;1.63;100.00;101675.22;5030254;28;20100;-78
2022/12/05 00:04:27;;;;;;;63.63;44.13;;;;;;;1.63;100.00;101688.19;5024870;28;20029;-78
2022/12/05 00:06:52;;;;;;;61.25;43.47;;;;;;;1.66;100.00;101679.47;5011936;28;20387;-78
2022/12/05 00:09:17;;;;;;;64.10;43.90;;;;;;;1.63;100.00;101680.41;5029939;28;20029;-78
2022/12/05 00:11:44;;;;;;;66.50;44.35;;;;;;;1.66;100.00;101690.69;5011295;28;20025;-78
2022/12/05 00:14:11;;;;;;;61.78;44.40;;;;;;;1.65;100.00;101694.19;5029401;28;20448;-78
2022/12/05 00:16:38;;;;;;;64.32;44.22;;;;;;;1.68;100.00;101694.09;5017468;28;20473;-77
2022/12/05 00:19:05;;;;;;;62.55;44.67;;;;;;;1.64;100.00;101689.88;5035921;28;20021;-78
2022/12/05 00:21:34;;;;;;;65.30;46.47;;;;;;;1.65;100.00;101689.00;5016220;28;20037;-78
2022/12/05 00:24:04;;;;;;;68.00;46.35;;;;;;;1.66;100.00;101690.69;5018814;28;20034;-77
2022/12/05 00:26:31;;;;;;;70.20;46.33;;;;;;;1.67;100.00;101692.41;5035894;28;20446;-76
2022/12/05 00:28:56;;;;;;;71.70;48.22;;;;;;;1.66;100.00;101690.69;5035609;28;20033;-77
2022/12/05 00:31:23;;;;;;;69.43;46.28;;;;;;;1.66;100.00;101690.69;5018079;28;20494;-77
2022/12/05 00:33:50;;;;;;;71.93;47.15;;;;;;;1.66;100.00;101684.66;5036065;28;20040;-77
2022/12/05 00:36:18;;;;;;;68.35;46.58;;;;;;;1.67;100.00;101684.63;5034448;28;20432;-77
2022/12/05 00:38:44;;;;;;;68.35;47.67;;;;;;;1.68;100.00;101678.53;5015196;28;20025;-77
2022/12/05 00:41:11;;;;;;;66.88;46.78;;;;;;;1.69;100.00;101674.22;4997631;28;20018;-77
2022/12/05 00:43:37;;;;;;;72.85;47.47;;;;;;;1.69;100.00;101676.81;5023912;28;20176;-77
2022/12/05 00:46:09;;;;;;;69.45;47.90;;;;;;;1.69;100.00;101685.44;5035886;28;20484;-77
2022/12/05 00:48:35;;;;;;;70.07;47.70;;;;;;;1.72;100.00;101680.19;5013962;28;20025;-78
2022/12/05 00:51:09;;;;;;;68.15;46.95;;;;;;;1.69;100.00;101677.66;5016041;28;20161;-77
2022/12/05 00:53:35;;;;;;;69.63;48.05;;;;;;;1.73;100.00;101676.69;5034338;28;20735;-77
2022/12/05 00:56:06;;;;;;;73.22;48.85;;;;;;;1.73;100.00;101675.84;5032068;28;20025;-77
2022/12/05 00:58:32;;;;;;;70.43;48.72;;;;;;;1.74;100.00;101673.22;5032682;28;20469;-77
2022/12/05 01:01:04;;;;;;;68.20;48.38;;;;;;;1.75;100.00;101674.06;5017556;28;20044;-77
2022/12/05 01:03:29;;;;;;;70.80;48.20;;;;;;;1.76;100.00;101670.56;5034825;28;20488;-78
2022/12/05 01:05:54;;;;;;;69.75;48.47;;;;;;;1.76;100.00;101675.75;5017310;28;20025;-78
2022/12/05 01:08:20;;;;;;;70.43;47.63;;;;;;;1.75;100.00;101677.50;5034985;28;20104;-77
2022/12/05 01:10:52;;;;;;;70.78;48.35;;;;;;;1.78;100.00;101682.63;5035670;28;20162;-78
2022/12/05 01:13:17;;;;;;;67.88;48.55;;;;;;;1.76;100.00;101687.00;5015210;28;20034;-78
2022/12/05 01:15:42;;;;;;;73.05;48.17;;;;;;;1.77;100.00;101685.25;5017657;28;20105;-77
2022/12/05 01:18:07;;;;;;;73.90;49.58;;;;;;;1.77;100.00;101691.28;5035258;28;20034;-77
2022/12/05 01:20:33;;;;;;;72.50;48.80;;;;;;;1.77;100.00;101686.09;5029867;28;20025;-77
2022/12/05 01:22:58;;;;;;;70.75;48.95;;;;;;;1.78;100.00;101692.13;5032262;28;20017;-77
2022/12/05 01:25:23;;;;;;;68.65;48.00;;;;;;;1.79;100.00;101689.50;5034109;28;20113;-77
2022/12/05 01:27:49;;;;;;;73.70;49.55;;;;;;;1.79;100.00;101697.28;5032245;28;20026;-77
2022/12/05 01:30:14;;;;;;;71.13;49.60;;;;;;;1.80;100.00;101698.16;5028476;28;20024;-77
2022/12/05 01:32:39;;;;;;;71.47;49.38;;;;;;;1.80;100.00;101696.41;5009332;28;20033;-77
2022/12/05 01:35:05;;;;;;;68.30;49.05;;;;;;;1.81;100.00;101698.09;5031848;28;20025;-77
2022/12/05 01:37:30;;;;;;;71.15;48.50;;;;;;;1.83;100.00;101698.91;5013905;28;20124;-78
2022/12/05 01:39:56;;;;;;;67.47;48.40;;;;;;;1.83;100.00;101698.91;5032533;28;20029;-77
2022/12/05 01:42:21;;;;;;;77.05;49.50;;;;;;;1.84;100.00;101700.63;5013929;28;20072;-77
2022/12/05 01:44:46;;;;;;;68.70;49.08;;;;;;;1.83;100.00;101704.09;5031348;28;20033;-77
2022/12/05 01:47:16;;;;;;;69.60;48.72;;;;;;;1.82;100.00;101707.59;5010479;28;20029;-77
2022/12/05 01:49:42;;;;;;;73.53;50.70;;;;;;;1.83;100.00;101704.09;5013293;28;20037;-77
2022/12/05 01:52:17;;;;;;;66.97;48.25;;;;;;;1.86;100.00;101708.38;5013321;28;20021;-77
2022/12/05 01:54:44;;;;;;;71.35;48.03;;;;;;;1.87;100.00;101717.84;5030951;28;20117;-77
2022/12/05 01:57:12;;;;;;;68.90;48.15;;;;;;;1.88;100.00;101716.97;5010281;28;20045;-77
2022/12/05 01:59:43;;;;;;;69.55;49.85;;;;;;;1.87;100.00;101716.13;5011082;28;20032;-77
2022/12/05 02:02:09;;;;;;;67.40;48.03;;;;;;;1.89;100.00;101714.34;4995737;28;20018;-77
2022/12/05 02:04:42;;;;;;;73.38;49.08;;;;;;;1.87;100.00;101716.13;5023111;28;20060;-77
2022/12/05 02:07:07;;;;;;;70.90;48.22;;;;;;;1.89;100.00;101719.53;5009547;28;20022;-76
2022/12/05 02:09:33;;;;;;;69.70;46.72;;;;;;;1.91;100.00;101716.91;5006511;28;20079;-77
2022/12/05 02:12:00;;;;;;;69.40;48.47;;;;;;;1.91;100.00;101718.63;5031354;28;20549;-77
2022/12/05 02:15:03;;;;;;;71.68;48.13;;;;;;;1.95;100.00;101722.84;5029840;28;20034;-77
2022/12/05 02:17:41;;;;;;;71.30;48.97;;;;;;;1.92;100.00;101715.16;5030557;28;20029;-79
2022/12/05 02:20:17;;;;;;;70.45;47.17;;;;;;;1.94;100.00;101722.00;5030486;28;20087;-78
2022/12/05 02:23:24;;;;;;;66.00;47.88;;;;;;;1.94;100.00;101714.22;5026148;28;20022;-79
2022/12/05 02:26:12;;;;;;;69.75;48.08;;;;;;;1.97;100.00;101715.88;5008673;28;20120;-77
2022/12/05 02:28:54;;;;;;;67.13;46.20;;;;;;;1.94;100.00;101711.63;5018632;28;20029;-77
2022/12/05 02:32:09;;;;;;;69.28;48.47;;;;;;;1.97;100.00;101708.97;5030167;28;20478;-77
2022/12/05 02:34:56;;;;;;;69.65;48.88;;;;;;;1.92;100.00;101712.56;4989307;28;20136;-77
2022/12/05 02:37:38;;;;;;;68.50;48.92;;;;;;;1.95;100.00;101712.47;5029904;28;20037;-77
2022/12/05 02:40:41;;;;;;;68.60;48.47;;;;;;;1.94;100.00;101706.44;5030454;28;20478;-77
2022/12/05 02:43:16;;;;;;;70.07;48.15;;;;;;;1.94;100.00;101708.19;5004228;28;20113;-77
2022/12/05 02:45:46;;;;;;;69.55;48.70;;;;;;;1.92;100.00;101704.78;5011011;28;20022;-77
2022/12/05 02:48:16;;;;;;;70.07;49.47;;;;;;;1.93;100.00;101709.91;4996683;28;20057;-77
2022/12/05 02:50:43;;;;;;;71.05;48.38;;;;;;;1.93;100.00;101703.88;5023626;28;20025;-77
2022/12/05 02:53:11;;;;;;;70.68;49.13;;;;;;;1.93;100.00;101706.47;5029812;28;20033;-77
2022/12/05 02:55:39;;;;;;;72.57;48.83;;;;;;;1.93;100.00;101711.66;5010118;28;20036;-77
2022/12/05 02:58:11;;;;;;;72.40;49.72;;;;;;;1.94;100.00;101715.97;5020963;28;20039;-77
2022/12/05 03:00:38;;;;;;;67.05;48.03;;;;;;;1.95;100.00;101713.31;5030655;28;20033;-77
2022/12/05 03:03:14;;;;;;;74.85;49.45;;;;;;;1.95;100.00;101715.06;5028588;28;20034;-77
2022/12/05 03:05:48;;;;;;;72.18;49.50;;;;;;;1.97;100.00;101715.88;5000442;28;20124;-77
2022/12/05 03:08:19;;;;;;;72.88;49.28;;;;;;;1.95;100.00;101718.53;5028790;28;20482;-78
2022/12/05 03:10:46;;;;;;;68.68;48.42;;;;;;;1.97;100.00;101716.75;5011701;28;20033;-77
2022/12/05 03:13:20;;;;;;;70.60;48.92;;;;;;;1.94;100.00;101716.81;5029157;28;20034;-77
2022/12/05 03:15:49;;;;;;;73.60;51.30;;;;;;;1.94;100.00;101718.56;5030360;28;20061;-77
2022/12/05 03:18:22;;;;;;;73.75;49.35;;;;;;;1.96;100.00;101714.19;5029615;28;20370;-77
2022/12/05 03:20:55;;;;;;;72.32;50.30;;;;;;;1.96;100.00;101716.78;5014236;28;20021;-77
2022/12/05 03:23:31;;;;;;;72.65;50.50;;;;;;;1.95;100.00;101713.31;5026767;28;20026;-77
2022/12/05 03:26:10;;;;;;;74.97;50.45;;;;;;;1.95;100.00;101707.28;5030558;28;20032;-77
2022/12/05 03:28:53;;;;;;;75.93;50.78;;;;;;;1.95;100.00;101708.13;5012740;28;20033;-77
2022/12/05 03:31:31;;;;;;;74.82;50.60;;;;;;;1.97;100.00;101705.50;5029057;28;20037;-77
2022/12/05 03:33:59;;;;;;;81.40;49.38;;;;;;;1.95;100.00;101707.28;5029981;28;20030;-77
2022/12/05 03:36:33;;;;;;;71.13;48.88;;;;;;;1.97;100.00;101702.91;5011748;28;20125;-77
2022/12/05 03:39:07;;;;;;;72.28;51.05;;;;;;;1.99;100.00;101714.09;5008073;28;20474;-77
2022/12/05 03:42:27;;;;;;;73.05;50.13;;;;;;;1.99;100.00;101707.16;5029876;28;20155;-77
2022/12/05 03:45:05;;;;;;;73.53;49.58;;;;;;;2.00;100.00;101710.63;4952233;28;20043;-77
2022/12/05 03:47:51;;;;;;;71.88;50.28;;;;;;;1.98;100.00;101704.63;4969190;28;20042;-76
2022/12/05 03:50:28;;;;;;;72.72;49.33;;;;;;;2.00;100.00;101710.63;4999200;28;20095;-77
2022/12/05 03:52:59;;;;;;;72.93;49.53;;;;;;;1.99;100.00;101706.31;5028595;28;20030;-78
2022/12/05 03:55:26;;;;;;;72.22;49.75;;;;;;;1.97;100.00;101705.50;5011356;28;20044;-78
2022/12/05 03:57:59;;;;;;;77.68;50.90;;;;;;;1.99;100.00;101709.75;5009649;28;20083;-78
2022/12/05 04:00:29;;;;;;;78.22;51.20;;;;;;;1.99;100.00;101708.91;4991051;28;20139;-77
2022/12/05 04:03:02;;;;;;;80.13;50.75;;;;;;;1.98;100.00;101712.41;5010878;28;20013;-78
2022/12/05 04:05:39;;;;;;;73.03;49.92;;;;;;;2.03;100.00;101718.34;5008715;28;20053;-77
2022/12/05 04:08:16;;;;;;;70.05;48.00;;;;;;;2.02;100.00;101719.25;5014780;28;20029;-77
2022/12/05 04:10:48;;;;;;;70.55;47.95;;;;;;;2.01;100.00;101721.00;5007899;28;20026;-77
2022/12/05 04:13:49;;;;;;;71.78;50.13;;;;;;;2.05;100.00;101724.38;5028021;28;20045;-77
2022/12/05 04:17:04;;;;;;;70.18;49.55;;;;;;;2.04;100.00;101712.28;5011876;28;20442;-77
2022/12/05 04:22:26;;;;;;;76.32;49.47;;;;;;;2.07;100.00;101717.38;5029182;28;20064;-79
2022/12/05 04:27:48;;;;;;;67.88;47.88;;;;;;;2.09;100.00;101726.00;5029226;28;20072;-78
2022/12/05 04:30:21;;;;;;;69.57;49.78;;;;;;;2.07;100.00;101717.38;5012782;28;20029;-79
2022/12/05 04:32:55;;;;;;;70.95;47.92;;;;;;;2.09;100.00;101728.59;5028986;28;20030;-78
2022/12/05 04:36:05;;;;;;;73.95;49.38;;;;;;;2.11;100.00;101732.00;5010364;28;20030;-78
2022/12/05 04:38:47;;;;;;;74.28;48.72;;;;;;;2.09;100.00;101726.00;5006209;28;20060;-78
2022/12/05 04:41:16;;;;;;;74.40;49.35;;;;;;;2.11;100.00;101729.41;5022884;28;20033;-78
2022/12/05 04:43:46;;;;;;;75.60;49.78;;;;;;;2.06;100.00;101726.91;5029331;28;20040;-78
2022/12/05 04:46:15;;;;;;;75.15;48.65;;;;;;;2.07;100.00;101730.38;5011342;28;20061;-78
2022/12/05 04:48:47;;;;;;;70.95;48.60;;;;;;;2.07;100.00;101728.63;5011267;28;20024;-78
2022/12/05 04:51:17;;;;;;;70.35;48.92;;;;;;;2.07;100.00;101732.97;5021590;28;20808;-78
2022/12/05 04:53:46;;;;;;;71.15;49.00;;;;;;;2.07;100.00;101732.97;5011010;28;20049;-77
2022/12/05 04:56:17;;;;;;;73.82;50.35;;;;;;;2.08;100.00;101732.06;5028395;28;20104;-77
2022/12/05 04:58:42;;;;;;;71.78;49.25;;;;;;;2.08;100.00;101724.28;5011030;28;20380;-78
2022/12/05 05:01:23;;;;;;;70.18;48.53;;;;;;;2.08;100.00;101729.47;5028253;28;20096;-78
2022/12/05 05:04:05;;;;;;;73.38;49.42;;;;;;;2.07;100.00;101730.38;5032151;28;20033;-78
2022/12/05 05:06:30;;;;;;;72.22;48.95;;;;;;;2.07;100.00;101723.44;5012890;28;20972;-78
2022/12/05 05:08:57;;;;;;;71.90;49.33;;;;;;;2.08;100.00;101729.47;5031848;28;20036;-78
2022/12/05 05:11:25;;;;;;;71.63;48.17;;;;;;;2.10;100.00;101728.53;5031895;28;20132;-78
2022/12/05 05:13:51;;;;;;;74.55;49.17;;;;;;;2.09;100.00;101726.84;5032047;28;20037;-78
2022/12/05 05:16:26;;;;;;;81.38;50.42;;;;;;;2.10;100.00;101732.88;5031708;28;20056;-77
2022/12/05 05:18:53;;;;;;;72.85;48.95;;;;;;;2.10;100.00;101732.88;5032618;28;20021;-78
2022/12/05 05:21:34;;;;;;;74.90;48.40;;;;;;;2.12;100.00;101746.69;5027132;28;20022;-78
2022/12/05 05:23:59;;;;;;;74.15;49.03;;;;;;;2.10;100.00;101743.25;5031483;28;20481;-78
2022/12/05 05:26:26;;;;;;;71.97;48.38;;;;;;;2.14;100.00;101755.28;5014730;28;20029;-76
2022/12/05 05:28:52;;;;;;;69.82;48.17;;;;;;;2.12;100.00;101741.47;5033155;28;20035;-77
2022/12/05 05:31:19;;;;;;;72.10;48.30;;;;;;;2.16;100.00;101743.97;5031285;28;20063;-77
2022/12/05 05:33:51;;;;;;;74.28;48.00;;;;;;;2.13;100.00;101743.19;5011316;28;20030;-77
2022/12/05 05:36:17;;;;;;;76.82;50.55;;;;;;;2.17;100.00;101742.22;4995196;28;20565;-77
2022/12/05 05:38:45;;;;;;;70.78;49.05;;;;;;;2.18;100.00;101741.34;4998545;28;20026;-77
2022/12/05 05:41:22;;;;;;;70.57;48.42;;;;;;;2.19;100.00;101743.03;4995438;28;20060;-76
2022/12/05 05:43:48;;;;;;;71.72;48.10;;;;;;;2.18;100.00;101739.59;5015484;28;20028;-77
2022/12/05 05:46:15;;;;;;;73.72;49.17;;;;;;;2.18;100.00;101738.72;5032098;28;20096;-77
2022/12/05 05:48:40;;;;;;;67.97;46.55;;;;;;;2.17;100.00;101739.63;5032188;28;20374;-77
2022/12/05 05:51:08;;;;;;;65.18;46.00;;;;;;;2.21;100.00;101741.25;5031178;28;20078;-76
2022/12/05 05:53:34;;;;;;;67.57;45.72;;;;;;;2.21;100.00;101743.84;5014113;28;20044;-78
2022/12/05 05:56:04;;;;;;;64.38;44.67;;;;;;;2.25;100.00;101747.22;5013132;28;20071;-77
2022/12/05 05:58:30;;;;;;;67.63;45.80;;;;;;;2.24;100.00;101751.56;5009571;28;20592;-77
2022/12/05 06:01:04;;;;;;;63.33;44.85;;;;;;;2.26;100.00;101754.97;5013656;28;20054;-77
2022/12/05 06:03:29;;;;;;;66.22;45.15;;;;;;;2.22;100.00;101748.16;5031256;28;20386;-77
2022/12/05 06:05:56;;;;;;;65.90;43.72;;;;;;;2.24;100.00;101756.75;5030725;28;20034;-78
2022/12/05 06:08:21;;;;;;;63.78;44.80;;;;;;;2.22;100.00;101761.13;5031031;28;20457;-77
2022/12/05 06:10:47;;;;;;;65.47;44.65;;;;;;;2.25;100.00;101755.00;5031634;28;20112;-76
2022/12/05 06:13:12;;;;;;;66.22;45.28;;;;;;;2.26;100.00;101752.38;5010934;28;20569;-77
2022/12/05 06:15:37;;;;;;;65.25;44.28;;;;;;;2.27;100.00;101750.63;5031253;28;20051;-77
2022/12/05 06:18:03;;;;;;;66.38;44.53;;;;;;;2.26;100.00;101760.16;5013305;28;20035;-77
2022/12/05 06:20:29;;;;;;;68.07;45.25;;;;;;;2.29;100.00;101762.69;5030563;28;20060;-77
2022/12/05 06:22:54;;;;;;;67.88;45.28;;;;;;;2.28;100.00;101758.38;5031546;28;20464;-77
2022/12/05 06:25:19;;;;;;;66.90;45.15;;;;;;;2.32;100.00;101762.59;5013797;28;20037;-77
2022/12/05 06:27:45;;;;;;;69.43;45.88;;;;;;;2.30;100.00;101761.78;5031032;28;20447;-77
2022/12/05 06:30:10;;;;;;;64.80;44.30;;;;;;;2.31;100.00;101766.09;5012116;28;20112;-77
2022/12/05 06:32:36;;;;;;;63.72;43.80;;;;;;;2.32;100.00;101767.78;5013233;28;20095;-77
2022/12/05 06:35:09;;;;;;;68.38;45.60;;;;;;;2.29;100.00;101760.06;5013119;28;20029;-77
2022/12/05 06:37:36;;;;;;;63.85;44.05;;;;;;;2.33;100.00;101761.72;5031018;28;20401;-77
2022/12/05 06:40:02;;;;;;;64.18;44.28;;;;;;;2.34;100.00;101762.56;5030952;28;20026;-77
2022/12/05 06:42:29;;;;;;;65.07;44.42;;;;;;;2.35;100.00;101764.25;5013370;28;20043;-78
2022/12/05 06:44:55;;;;;;;64.70;43.53;;;;;;;2.34;100.00;101763.41;5030016;28;20041;-78
2022/12/05 06:47:20;;;;;;;62.70;43.53;;;;;;;2.36;100.00;101764.22;5026110;28;20031;-78
2022/12/05 06:49:45;;;;;;;62.85;43.08;;;;;;;2.37;100.00;101767.66;5030713;28;20025;-78
2022/12/05 06:52:11;;;;;;;61.28;42.75;;;;;;;2.36;100.00;101766.81;5012421;28;20071;-78
2022/12/05 06:54:36;;;;;;;60.30;42.22;;;;;;;2.38;100.00;101771.97;5011888;28;20021;-78
2022/12/05 06:57:05;;;;;;;59.90;42.85;;;;;;;2.39;100.00;101771.94;5030709;28;20108;-79
2022/12/05 06:59:30;;;;;;;60.42;42.40;;;;;;;2.41;100.00;101764.13;5029762;28;20301;-78
2022/12/05 07:01:55;;;;;;;60.90;42.05;;;;;;;2.43;100.00;101773.59;5028612;28;20029;-77
2022/12/05 07:04:23;;;;;;;53.95;40.70;;;;;;;2.45;100.00;101781.34;5011709;28;20022;-77
2022/12/05 07:06:49;;;;;;;59.33;40.95;;;;;;;2.44;100.00;101780.50;5023962;28;20026;-78
2022/12/05 07:09:17;;;;;;;55.58;40.35;;;;;;;2.45;100.00;101781.34;5011745;28;20095;-78
2022/12/05 07:11:45;;;;;;;56.33;39.88;;;;;;;2.46;100.00;101783.91;5030119;28;20033;-78
2022/12/05 07:14:11;;;;;;;57.30;40.38;;;;;;;2.46;100.00;101780.44;5030083;28;20045;-78
2022/12/05 07:16:36;;;;;;;53.25;38.50;;;;;;;2.47;100.00;101793.41;5011926;28;20164;-78
2022/12/05 07:19:05;;;;;;;56.10;39.08;;;;;;;2.47;100.00;101787.34;5027678;28;20100;-78
2022/12/05 07:21:30;;;;;;;52.45;37.45;;;;;;;2.49;100.00;101794.22;5029821;28;20045;-78
2022/12/05 07:23:55;;;;;;;52.63;38.30;;;;;;;2.48;100.00;101800.28;5011449;28;20025;-78
2022/12/05 07:26:22;;;;;;;50.95;38.72;;;;;;;2.48;100.00;101802.91;5029940;28;20158;-78
2022/12/05 07:28:49;;;;;;;51.50;37.65;;;;;;;2.50;100.00;101808.06;5030149;28;20509;-78
2022/12/05 07:31:17;;;;;;;51.97;37.63;;;;;;;2.47;100.00;101813.31;5011906;28;20108;-78
2022/12/05 07:33:43;;;;;;;51.97;37.78;;;;;;;2.50;100.00;101808.06;5011584;28;20076;-78
2022/12/05 07:36:11;;;;;;;48.85;36.92;;;;;;;2.48;100.00;101810.69;5018904;28;20038;-77
2022/12/05 07:38:37;;;;;;;49.85;35.88;;;;;;;2.49;100.00;101817.59;5013809;28;20033;-77
2022/12/05 07:41:05;;;;;;;50.83;37.63;;;;;;;2.51;100.00;101813.19;5029875;28;20155;-77
2022/12/05 07:43:30;;;;;;;50.95;36.75;;;;;;;2.52;100.00;101808.84;5027950;28;20120;-77
2022/12/05 07:46:00;;;;;;;46.40;36.35;;;;;;;2.55;100.00;101815.72;5028712;28;20152;-77
2022/12/05 07:48:26;;;;;;;48.78;35.50;;;;;;;2.56;100.00;101813.09;5029069;28;20025;-77
2022/12/05 07:50:51;;;;;;;51.53;37.10;;;;;;;2.55;100.00;101818.31;5028815;28;20048;-78
2022/12/05 07:53:16;;;;;;;52.10;36.78;;;;;;;2.56;100.00;101814.84;5025567;28;20021;-78
2022/12/05 07:55:41;;;;;;;49.92;35.67;;;;;;;2.53;100.00;101817.50;4992252;28;20117;-78
2022/12/05 07:58:07;;;;;;;51.97;37.35;;;;;;;2.55;100.00;101826.97;5027323;28;20335;-79
2022/12/05 08:00:32;;;;;;;52.53;36.55;;;;;;;2.54;100.00;101817.47;5009421;28;20395;-78
2022/12/05 08:02:58;;;;;;;57.65;37.72;;;;;;;2.54;100.00;101822.66;5011076;28;20026;-78
2022/12/05 08:05:23;;;;;;;51.17;37.80;;;;;;;2.57;100.00;101817.38;5010151;28;20068;-78
2022/12/05 08:07:48;;;;;;;51.55;37.28;;;;;;;2.55;100.00;101821.78;5028978;28;20040;-78
2022/12/05 08:10:14;;;;;;;52.17;37.72;;;;;;;2.51;100.00;101822.75;5010881;28;20029;-78
2022/12/05 08:12:39;;;;;;;53.03;37.33;;;;;;;2.56;100.00;101831.25;5027946;28;20521;-79
2022/12/05 08:15:05;;;;;;;52.70;38.35;;;;;;;2.56;100.00;101830.41;5028153;28;20029;-78
2022/12/05 08:17:32;;;;;;;59.80;39.60;;;;;;;2.57;100.00;101832.13;5028903;28;20041;-79
2022/12/05 08:19:57;;;;;;;53.88;37.97;;;;;;;2.57;100.00;101840.75;5028367;28;20083;-78
2022/12/05 08:22:22;;;;;;;51.30;37.35;;;;;;;2.57;100.00;101843.38;5027693;28;20108;-78
2022/12/05 08:24:51;;;;;;;52.70;38.13;;;;;;;2.58;100.00;101849.41;5038051;28;20495;-77
2022/12/05 08:27:16;;;;;;;49.38;36.78;;;;;;;2.61;100.00;101844.13;5028248;28;20071;-77
2022/12/05 08:29:41;;;;;;;53.40;38.05;;;;;;;2.63;100.00;101851.00;5011502;28;20021;-79
2022/12/05 08:32:07;;;;;;;49.65;37.22;;;;;;;2.64;100.00;101849.25;5028998;28;20041;-77
2022/12/05 08:34:32;;;;;;;53.50;37.90;;;;;;;2.69;100.00;101848.25;5011233;28;20041;-78
2022/12/05 08:36:57;;;;;;;51.58;37.40;;;;;;;2.68;100.00;101853.47;5015166;28;20041;-78
2022/12/05 08:39:23;;;;;;;53.42;38.80;;;;;;;2.68;100.00;101856.06;5033125;28;20053;-77
2022/12/05 08:41:49;;;;;;;54.55;37.72;;;;;;;2.71;100.00;101850.81;5015855;28;20033;-78
2022/12/05 08:44:15;;;;;;;51.67;38.45;;;;;;;2.73;100.00;101856.81;5015610;28;20049;-78
2022/12/05 08:46:42;;;;;;;53.75;38.22;;;;;;;2.74;100.00;101854.16;5015077;28;20056;-77
2022/12/05 08:49:09;;;;;;;52.55;36.85;;;;;;;2.75;100.00;101848.09;5033716;28;20030;-78
2022/12/05 08:51:34;;;;;;;53.28;38.17;;;;;;;2.75;100.00;101853.28;5033479;28;20621;-77
2022/12/05 08:54:04;;;;;;;52.13;36.83;;;;;;;2.80;100.00;101853.16;5014760;28;20025;-78
2022/12/05 08:56:31;;;;;;;53.05;37.22;;;;;;;2.78;100.00;101857.53;5015283;28;20029;-77
2022/12/05 08:58:57;;;;;;;53.75;37.15;;;;;;;2.81;100.00;101857.50;5015660;28;20026;-77
2022/12/05 09:01:24;;;;;;;53.08;37.88;;;;;;;2.76;100.00;101864.53;5014541;28;20030;-77
2022/12/05 09:03:49;;;;;;;50.85;37.60;;;;;;;2.78;100.00;101863.59;5009638;28;20029;-78
2022/12/05 09:06:16;;;;;;;51.13;36.80;;;;;;;2.80;100.00;101864.44;5026512;28;20397;-77
2022/12/05 09:08:43;;;;;;;52.88;37.08;;;;;;;2.80;100.00;101871.34;5014149;28;20034;-77
2022/12/05 09:11:11;;;;;;;56.05;38.42;;;;;;;2.82;100.00;101877.41;4997332;28;20022;-77
2022/12/05 09:13:37;;;;;;;56.38;39.20;;;;;;;2.82;100.00;101875.66;5011594;28;20058;-77
2022/12/05 09:16:08;;;;;;;54.00;39.75;;;;;;;2.84;100.00;101880.81;5026472;28;20048;-77
2022/12/05 09:18:33;;;;;;;55.10;38.05;;;;;;;2.80;100.00;101877.44;5014275;28;20034;-78
2022/12/05 09:21:05;;;;;;;51.55;38.30;;;;;;;2.82;100.00;101880.00;5031916;28;20037;-78
2022/12/05 09:23:31;;;;;;;49.47;36.97;;;;;;;2.83;100.00;101881.69;5013045;28;20246;-78
2022/12/05 09:25:57;;;;;;;50.92;35.63;;;;;;;2.86;100.00;101881.63;5031591;28;20029;-78
2022/12/05 09:28:22;;;;;;;49.45;36.85;;;;;;;2.88;100.00;101886.78;5012993;28;20044;-78
2022/12/05 09:31:03;;;;;;;52.38;35.05;;;;;;;2.87;100.00;101888.53;5031258;28;20053;-78
2022/12/05 09:33:30;;;;;;;50.80;36.13;;;;;;;2.84;100.00;101893.81;5026350;28;20405;-78
2022/12/05 09:35:56;;;;;;;53.20;37.75;;;;;;;2.87;100.00;101904.13;5023052;28;20033;-79
2022/12/05 09:38:22;;;;;;;49.28;37.33;;;;;;;2.87;100.00;101896.31;4994703;28;20033;-79
2022/12/05 09:41:05;;;;;;;46.25;34.75;;;;;;;2.89;100.00;101902.34;5026483;28;20028;-79
2022/12/05 09:43:41;;;;;;;47.05;35.60;;;;;;;2.92;100.00;101901.41;5051573;28;20090;-79
2022/12/05 09:46:28;;;;;;;49.03;35.58;;;;;;;2.95;100.00;101902.16;5052333;28;20392;-80
2022/12/05 09:48:56;;;;;;;50.13;35.80;;;;;;;2.94;100.00;101900.47;5052085;28;20500;-80
2022/12/05 09:51:22;;;;;;;44.70;32.80;;;;;;;2.92;100.00;101906.59;5046314;28;20359;-79
2022/12/05 09:53:47;;;;;;;43.88;32.03;;;;;;;2.94;100.00;101904.81;5013805;28;20032;-79
2022/12/05 09:56:27;;;;;;;42.05;32.78;;;;;;;2.98;100.00;101907.28;5022746;28;20044;-79
2022/12/05 09:58:54;;;;;;;43.30;32.67;;;;;;;2.99;100.00;101909.00;5020032;28;20398;-79
2022/12/05 10:01:40;;;;;;;44.47;33.47;;;;;;;2.96;100.00;101911.69;5029637;28;20040;-79
2022/12/05 10:04:30;;;;;;;42.67;32.25;;;;;;;2.98;100.00;101902.09;5013433;28;20498;-79
2022/12/05 10:07:06;;;;;;;39.17;30.02;;;;;;;3.01;100.00;101896.81;5031611;28;20035;-79
2022/12/05 10:09:43;;;;;;;36.70;28.20;;;;;;;3.01;100.00;101904.63;5031474;28;20037;-79
2022/12/05 10:12:26;;;;;;;37.42;29.17;;;;;;;3.00;100.00;101905.50;5020729;28;20021;-79
2022/12/05 10:15:15;;;;;;;32.22;25.83;;;;;;;3.02;100.00;101908.91;5013223;28;20076;-79
2022/12/05 10:17:51;;;;;;;30.30;25.13;;;;;;;3.01;100.00;101907.22;5031132;28;20029;-79
2022/12/05 10:20:32;;;;;;;31.42;25.58;;;;;;;3.02;100.00;101903.72;5015147;28;20025;-79
2022/12/05 10:23:05;;;;;;;30.70;25.27;;;;;;;3.04;100.00;101901.94;5002485;28;20451;-79
2022/12/05 10:25:32;;;;;;;27.65;23.10;;;;;;;3.05;100.00;101901.03;5012300;28;21648;-78
2022/12/05 10:28:00;;;;;;;30.98;23.63;;;;;;;3.07;100.00;101891.44;5031602;28;20048;-79
2022/12/05 10:30:32;;;;;;;28.15;22.10;;;;;;;3.02;100.00;101901.13;5030812;28;20452;-79
2022/12/05 10:33:02;;;;;;;26.55;22.77;;;;;;;3.07;100.00;101911.41;5030675;28;20036;-79
2022/12/05 10:35:33;;;;;;;27.30;22.70;;;;;;;3.10;100.00;101906.13;5010470;28;20041;-79
2022/12/05 10:38:27;;;;;;;28.42;23.05;;;;;;;3.14;100.00;101908.59;5029032;28;20034;-79
2022/12/05 10:40:57;;;;;;;25.48;21.83;;;;;;;3.10;100.00;101911.31;5012842;28;20470;-79
2022/12/05 10:43:25;;;;;;;26.00;20.98;;;;;;;3.07;100.00;101901.00;5013232;28;20382;-79
2022/12/05 10:45:51;;;;;;;27.30;22.05;;;;;;;3.12;100.00;101910.38;5013858;28;20029;-79
2022/12/05 10:48:19;;;;;;;27.13;22.17;;;;;;;3.06;100.00;101896.69;5030203;28;20048;-78
2022/12/05 10:50:47;;;;;;;26.95;22.45;;;;;;;3.08;100.00;101906.16;5031654;28;20032;-79
2022/12/05 10:53:16;;;;;;;26.17;21.50;;;;;;;3.10;100.00;101906.97;5024920;28;20075;-79
2022/12/05 10:55:46;;;;;;;25.75;22.45;;;;;;;3.09;100.00;101910.47;5030408;28;20014;-79
2022/12/05 10:58:23;;;;;;;25.05;21.67;;;;;;;3.11;100.00;101908.66;5012486;28;20043;-79
2022/12/05 11:00:52;;;;;;;26.73;21.08;;;;;;;3.06;100.00;101910.53;5028603;28;20040;-79
2022/12/05 11:03:25;;;;;;;24.05;20.73;;;;;;;3.11;100.00;101908.66;5011559;28;20080;-79
2022/12/05 11:05:51;;;;;;;;;;;;;;;3.25;100.00;101910.06;5013374;28;20025;-79
2022/12/05 11:08:29;;;;;;;20.65;18.45;;;;;;;3.09;100.00;101902.66;5011599;28;19913;-78
2022/12/05 11:11:17;;;;;;;24.13;19.88;;;;;;;3.14;100.00;101898.19;5028403;28;20029;-79
2022/12/05 11:14:05;;;;;;;23.73;19.70;;;;;;;3.23;100.00;101891.06;5030085;28;20041;-79
2022/12/05 11:16:35;;;;;;;25.67;20.38;;;;;;;3.20;100.00;101897.16;5028968;28;20271;-79
2022/12/05 11:19:38;;;;;;;23.05;20.15;;;;;;;3.34;100.00;101894.22;5030272;28;20486;-79
2022/12/05 11:22:06;;;;;;;22.02;19.60;;;;;;;3.33;100.00;101882.13;5028754;28;20478;-78
2022/12/05 11:24:35;;;;;;;20.42;18.23;;;;;;;3.34;100.00;101895.06;5029470;28;20017;-79
2022/12/05 11:27:29;;;;;;;19.80;17.73;;;;;;;3.42;100.00;101887.06;5012181;28;20437;-79
2022/12/05 11:30:03;;;;;;;20.48;17.63;;;;;;;3.38;100.00;101895.84;5018827;28;20022;-79
2022/12/05 11:32:31;;;;;;;19.25;17.20;;;;;;;3.41;100.00;101890.56;5027775;28;20060;-78